Time;durP1;ratioP1;P1;durP2;ratioP2;P2;SDS_P1;SDS_P2;PMS_P1;PMS_P2;Temp;Humidity;BMP_temperature;BMP_pressure;BME280_temperature;BME280_humidity;BME280_pressure;Samples;Min_cycle;Max_cycle;Signal;HPM_P1;HPM_P2
2022/04/08 00:01:01;;;;;;;7.03;1.77;;;11.00;61.20;;;;;;5058388;28;20213;-96
2022/04/08 00:03:42;;;;;;;9.13;2.13;;;11.00;61.00;;;;;;5051341;28;20207;-96
2022/04/08 00:06:30;;;;;;;7.47;2.37;;;11.00;61.20;;;;;;5047600;28;20216;-96
2022/04/08 00:09:45;;;;;;;6.43;2.10;;;10.90;61.00;;;;;;5049926;28;20228;-96
2022/04/08 00:12:25;;;;;;;8.93;2.27;;;10.90;61.00;;;;;;5045208;28;20216;-96
2022/04/08 00:15:10;;;;;;;10.13;2.77;;;10.90;61.00;;;;;;5039316;28;20206;-96
2022/04/08 00:21:16;;;;;;;11.00;2.67;;;10.80;61.50;;;;;;5046291;28;20655;-96
2022/04/08 00:31:13;;;;;;;4.63;1.80;;;10.70;61.40;;;;;;4906615;29;20232;-96
2022/04/08 00:39:57;;;;;;;;;;;;;;;;;;;;;
2022/04/08 00:42:26;;;;;;;5.40;1.87;;;10.70;60.60;;;;;;5021804;28;20217;-96
2022/04/08 00:45:21;;;;;;;6.70;1.80;;;10.60;60.50;;;;;;5022667;28;20201;-96
2022/04/08 00:47:57;;;;;;;6.57;2.43;;;10.60;60.70;;;;;;5071014;22;20233;-96
2022/04/08 00:50:30;;;;;;;6.90;2.27;;;10.60;60.30;;;;;;5022636;28;20292;-96
2022/04/08 00:53:40;;;;;;;6.60;1.43;;;10.60;60.40;;;;;;5022139;28;20224;-96
2022/04/08 00:56:57;;;;;;;7.03;2.30;;;10.60;60.80;;;;;;4943605;29;20212;-96
2022/04/08 01:13:15;;;;;;;5.53;2.10;;;10.50;60.50;;;;;;5023598;26;20225;-96
2022/04/08 01:23:06;;;;;;;6.93;2.33;;;10.40;60.60;;;;;;4967479;29;20203;-96
2022/04/08 02:25:56;;;;;;;9.67;3.40;;;10.30;61.10;;;;;;5102121;23;20267;-96
2022/04/08 02:35:48;;;;;;;14.47;4.63;;;10.20;61.40;;;;;;5018172;28;20281;-96
2022/04/08 03:06:50;;;;;;;8.87;2.53;;;10.00;61.70;;;;;;5005152;28;20240;-96
2022/04/08 03:16:09;;;;;;;6.63;2.53;;;9.90;62.70;;;;;;4984162;28;20215;-96
2022/04/08 03:25:54;;;;;;;10.23;2.43;;;9.80;63.00;;;;;;5010659;28;20240;-96
2022/04/08 03:39:05;;;;;;;7.10;2.03;;;9.60;62.80;;;;;;5000614;28;20198;-96
2022/04/08 03:52:00;;;;;;;;;;;;;;;;;;;;;
2022/04/08 04:05:02;;;;;;;8.83;2.77;;;9.20;63.20;;;;;;4960427;28;20202;-96
2022/04/08 04:08:00;;;;;;;16.73;4.30;;;9.20;63.60;;;;;;4964350;28;20213;-96
2022/04/08 04:14:47;;;;;;;8.87;2.60;;;9.00;63.80;;;;;;4967420;28;20211;-96
2022/04/08 04:20:34;;;;;;;6.63;2.77;;;8.90;64.00;;;;;;4975937;28;20207;-96
2022/04/08 04:23:28;;;;;;;7.07;2.47;;;8.90;63.90;;;;;;5045213;28;20243;-95
2022/04/08 04:26:54;;;;;;;8.47;2.20;;;8.80;64.20;;;;;;5050231;28;20216;-96
2022/04/08 04:29:53;;;;;;;5.87;2.50;;;8.70;64.80;;;;;;5042603;28;20216;-96
2022/04/08 04:32:47;;;;;;;8.27;2.80;;;8.70;64.00;;;;;;5045576;28;20633;-96
2022/04/08 04:35:26;;;;;;;7.10;2.43;;;8.70;64.60;;;;;;5044561;28;21060;-96
2022/04/08 04:48:06;;;;;;;10.73;3.43;;;8.50;65.40;;;;;;5028277;28;20209;-96
2022/04/08 05:01:28;;;;;;;7.43;2.93;;;8.30;66.00;;;;;;4983533;28;20315;-96
2022/04/08 05:04:14;;;;;;;14.33;4.07;;;8.30;66.00;;;;;;4963061;28;20207;-96
2022/04/08 05:10:45;;;;;;;7.37;2.50;;;8.20;66.30;;;;;;5013796;28;20219;-96
2022/04/08 05:14:01;;;;;;;;;;;;;;;;;;;;;
2022/04/08 05:23:38;;;;;;;4.10;1.90;;;8.10;66.50;;;;;;5031800;28;20211;-96
2022/04/08 05:30:12;;;;;;;10.17;3.00;;;8.10;66.90;;;;;;5013632;28;20206;-96
2022/04/08 07:01:25;;;;;;;6.03;2.73;;;8.50;68.10;;;;;;4899682;29;20214;-96
2022/04/08 07:11:19;;;;;;;9.77;3.00;;;8.60;68.00;;;;;;4869263;29;20253;-95
2022/04/08 07:17:46;;;;;;;11.67;3.53;;;8.70;67.70;;;;;;4857915;29;20219;-96
2022/04/08 07:23:19;;;;;;;9.60;3.53;;;8.70;67.50;;;;;;5219031;23;20241;-96
2022/04/08 07:26:24;;;;;;;7.10;2.80;;;8.70;67.90;;;;;;4981237;28;20215;-96
2022/04/08 07:33:16;;;;;;;;;;;;;;;;;;;;;
2022/04/08 07:37:02;;;;;;;;;;;;;;;;;;;;;
2022/04/08 07:40:10;;;;;;;6.73;2.90;;;8.90;67.90;;;;;;4981364;28;20687;-96
2022/04/08 07:46:12;;;;;;;13.80;4.43;;;9.00;67.40;;;;;;4933508;28;20214;-96
2022/04/08 07:56:11;;;;;;;13.87;4.27;;;9.20;67.30;;;;;;4939063;29;20234;-95
2022/04/08 07:59:24;;;;;;;10.67;3.83;;;9.20;67.20;;;;;;4942601;29;20216;-96
2022/04/08 08:05:46;;;;;;;12.90;4.37;;;9.40;66.80;;;;;;4884265;29;20210;-96
2022/04/08 08:15:10;;;;;;;11.87;3.60;;;9.60;66.50;;;;;;4794094;29;20223;-96
2022/04/08 08:31:16;;;;;;;6.27;2.83;;;9.90;66.90;;;;;;4978358;28;20317;-96
2022/04/08 08:34:35;;;;;;;11.23;4.40;;;9.90;66.10;;;;;;4982900;28;20216;-96
2022/04/08 09:21:30;;;;;;;10.67;3.43;;;10.60;63.60;;;;;;4918925;29;20212;-96
2022/04/08 11:04:57;;;;;;;;;;;;;;;;;;;;;
2022/04/08 11:07:56;;;;;;;5.27;2.53;;;11.50;58.50;;;;;;5061282;28;20193;-95
2022/04/08 11:10:43;;;;;;;13.10;4.07;;;11.60;58.20;;;;;;5069044;28;20209;-96
2022/04/08 11:14:10;;;;;;;10.97;3.57;;;11.60;58.00;;;;;;5069799;28;20300;-95
2022/04/08 11:16:51;;;;;;;7.07;2.80;;;11.60;57.70;;;;;;5055227;28;20280;-96
2022/04/08 11:23:12;;;;;;;;;;;;;;;;;;;;;
2022/04/08 11:25:49;;;;;;;7.30;2.93;;;11.70;58.00;;;;;;4971333;28;20236;-95
2022/04/08 11:28:45;;;;;;;6.63;2.77;;;11.70;58.00;;;;;;4959448;28;20649;-95
2022/04/08 11:31:26;;;;;;;8.57;2.97;;;11.80;57.50;;;;;;5023292;28;20252;-96
2022/04/08 11:34:14;;;;;;;7.00;3.00;;;11.90;57.20;;;;;;5039333;28;20210;-95
2022/04/08 11:37:02;;;;;;;6.50;2.37;;;11.90;56.60;;;;;;5042940;28;20207;-96
2022/04/08 11:39:40;;;;;;;9.33;2.73;;;11.90;57.20;;;;;;4999357;28;20285;-95
2022/04/08 11:49:58;;;;;;;5.63;2.47;;;12.10;56.80;;;;;;4926934;29;20212;-96
2022/04/08 12:03:20;;;;;;;9.10;2.43;;;12.30;56.30;;;;;;4938725;29;20203;-96
2022/04/08 12:09:41;;;;;;;7.27;3.13;;;12.50;56.10;;;;;;4919783;29;20217;-96
2022/04/08 12:23:11;;;;;;;13.33;4.60;;;12.70;54.60;;;;;;4939427;28;20234;-96
2022/04/08 12:29:58;;;;;;;11.63;3.90;;;12.80;55.80;;;;;;4952230;29;20205;-96
2022/04/08 12:36:07;;;;;;;10.27;3.60;;;13.00;55.80;;;;;;4827327;29;20215;-96
2022/04/08 12:48:33;;;;;;;;;;;;;;;;;;;;;
2022/04/08 12:51:09;;;;;;;8.60;3.17;;;13.40;54.80;;;;;;5058136;28;20198;-96
2022/04/08 12:54:09;;;;;;;7.20;2.33;;;13.40;54.70;;;;;;5047205;28;20224;-96
2022/04/08 12:57:33;;;;;;;4.53;2.07;;;13.40;54.00;;;;;;4923198;29;20215;-96
2022/04/08 13:00:57;;;;;;;;;;;;;;;;;;;;;
2022/04/08 13:03:37;;;;;;;6.63;2.37;;;13.50;54.10;;;;;;4957332;28;20338;-96
2022/04/08 13:06:37;;;;;;;4.90;2.30;;;13.50;54.50;;;;;;4957078;28;20644;-96
2022/04/08 13:09:21;;;;;;;7.70;2.23;;;13.50;54.10;;;;;;4955921;28;20210;-96
2022/04/08 13:15:25;;;;;;;6.77;2.60;;;13.50;53.70;;;;;;4961139;28;20217;-96
2022/04/08 13:21:18;;;;;;;8.63;3.17;;;13.60;53.60;;;;;;5063190;23;20310;-95
2022/04/08 13:23:47;;;;;;;6.57;2.63;;;13.60;54.00;;;;;;5053689;28;20207;-96
2022/04/08 13:26:17;;;;;;;29.93;10.23;;;13.60;53.70;;;;;;5044398;23;20310;-96
2022/04/08 13:31:13;;;;;;;12.93;3.93;;;13.60;53.40;;;;;;5088328;22;20232;-94
2022/04/08 13:33:43;;;;;;;7.33;2.70;;;13.70;53.40;;;;;;5055935;28;20239;-95
2022/04/08 13:36:20;;;;;;;3.10;1.87;;;13.70;53.60;;;;;;5055894;28;20215;-96
2022/04/08 13:38:56;;;;;;;6.60;1.87;;;13.70;53.10;;;;;;5051335;28;20204;-96
2022/04/08 13:41:26;;;;;;;6.17;2.37;;;13.80;53.30;;;;;;5052661;28;20284;-95
2022/04/08 13:44:52;;;;;;;5.80;2.40;;;13.80;53.60;;;;;;5062859;28;20204;-95
2022/04/08 13:47:25;;;;;;;8.03;2.73;;;13.90;52.50;;;;;;5040727;28;20196;-95
2022/04/08 13:49:57;;;;;;;7.10;2.73;;;13.90;53.20;;;;;;5056056;28;20308;-95
2022/04/08 13:52:38;;;;;;;7.63;2.70;;;13.90;53.50;;;;;;5055798;28;20238;-95
2022/04/08 13:55:09;;;;;;;9.83;3.33;;;13.90;53.00;;;;;;5054492;28;20206;-96
2022/04/08 14:01:12;;;;;;;6.00;2.30;;;14.00;51.90;;;;;;5030783;28;20205;-95
2022/04/08 14:03:47;;;;;;;6.17;1.73;;;14.00;52.70;;;;;;5035449;28;20211;-95
2022/04/08 14:06:14;;;;;;;5.93;2.10;;;14.10;52.60;;;;;;5034963;28;20201;-95
2022/04/08 14:12:08;;;;;;;10.50;2.77;;;14.10;52.00;;;;;;5035029;28;20211;-95
2022/04/08 14:14:40;;;;;;;3.70;1.83;;;14.20;52.60;;;;;;5035035;28;20732;-94
2022/04/08 14:17:15;;;;;;;10.50;3.57;;;14.20;52.20;;;;;;5035260;28;20196;-96
2022/04/08 14:22:22;;;;;;;6.10;2.23;;;14.40;52.40;;;;;;5226893;23;20292;-95
2022/04/08 14:24:55;;;;;;;6.30;2.07;;;14.40;52.20;;;;;;5051174;28;20279;-95
2022/04/08 14:28:13;;;;;;;10.67;3.43;;;14.50;51.90;;;;;;5036573;28;20273;-96
2022/04/08 14:30:50;;;;;;;8.70;3.27;;;14.50;50.80;;;;;;4992398;28;20201;-94
2022/04/08 14:36:17;;;;;;;8.03;2.73;;;14.50;50.60;;;;;;5218664;22;20250;-94
2022/04/08 14:38:47;;;;;;;4.33;1.83;;;14.50;50.50;;;;;;5057460;28;20201;-96
2022/04/08 14:41:17;;;;;;;9.53;2.10;;;14.50;51.30;;;;;;5058872;28;20207;-96
2022/04/08 14:43:49;;;;;;;3.97;1.90;;;14.50;50.40;;;;;;5055521;28;20306;-96
2022/04/08 14:46:18;;;;;;;9.30;2.93;;;14.50;50.20;;;;;;5057097;28;20208;-95
2022/04/08 14:48:45;;;;;;;9.90;2.60;;;14.40;50.40;;;;;;5055102;28;20197;-96
2022/04/08 14:51:15;;;;;;;6.43;2.13;;;14.40;50.80;;;;;;5058262;28;20211;-96
2022/04/08 14:53:45;;;;;;;8.27;2.50;;;14.40;50.70;;;;;;5062821;28;20319;-96
2022/04/08 14:59:39;;;;;;;5.47;1.93;;;14.20;50.30;;;;;;5055304;28;20210;-94
2022/04/08 15:02:14;;;;;;;9.00;2.43;;;14.10;50.10;;;;;;5055964;28;20294;-95
2022/04/08 15:04:44;;;;;;;7.70;2.67;;;14.10;50.60;;;;;;5057719;28;20213;-93
2022/04/08 15:07:14;;;;;;;5.77;2.10;;;14.00;50.60;;;;;;5055106;28;20228;-93
2022/04/08 15:10:48;;;;;;;;;;;;;;;;;;;;;
2022/04/08 15:13:27;;;;;;;7.17;2.43;;;14.00;50.70;;;;;;5022741;28;20245;-93
2022/04/08 15:15:56;;;;;;;6.87;2.33;;;14.00;50.80;;;;;;5053676;28;20666;-94
2022/04/08 15:18:25;;;;;;;6.50;1.73;;;14.00;51.30;;;;;;5054223;28;20734;-94
2022/04/08 15:20:56;;;;;;;6.37;2.73;;;13.90;51.40;;;;;;5053444;28;20204;-95
2022/04/08 15:23:23;;;;;;;6.63;2.87;;;13.90;50.90;;;;;;5053068;28;20253;-93
2022/04/08 15:25:52;;;;;;;7.07;2.03;;;13.90;51.20;;;;;;5052882;28;20316;-94
2022/04/08 15:28:39;;;;;;;12.07;3.90;;;13.90;51.40;;;;;;5051797;28;20207;-94
2022/04/08 15:31:08;;;;;;;7.43;3.37;;;13.80;51.70;;;;;;5050728;28;20315;-93
2022/04/08 15:37:15;;;;;;;4.27;2.10;;;13.80;52.70;;;;;;5052570;28;20328;-94
2022/04/08 15:39:50;;;;;;;10.33;3.47;;;13.80;53.00;;;;;;5052889;28;20208;-93
2022/04/08 15:42:23;;;;;;;8.07;3.37;;;13.80;53.60;;;;;;5056567;28;20202;-93
2022/04/08 15:44:53;;;;;;;13.90;3.33;;;13.70;53.70;;;;;;5199321;22;20241;-94
2022/04/08 15:47:24;;;;;;;11.97;3.83;;;13.70;54.10;;;;;;5044301;28;20290;-95
2022/04/08 15:49:52;;;;;;;15.00;6.27;;;13.70;54.40;;;;;;5053743;28;20230;-95
2022/04/08 15:52:21;;;;;;;10.60;4.10;;;13.60;54.60;;;;;;5046580;28;20270;-93
2022/04/08 15:54:49;;;;;;;9.73;2.70;;;13.60;54.90;;;;;;5064017;28;20194;-95
2022/04/08 15:57:16;;;;;;;14.27;3.40;;;13.50;54.90;;;;;;5061648;28;20231;-96
2022/04/08 15:59:43;;;;;;;9.47;3.70;;;13.50;55.10;;;;;;5057647;28;20256;-96
2022/04/08 16:02:15;;;;;;;8.70;2.67;;;13.40;55.30;;;;;;5060174;28;20215;-95
2022/04/08 16:04:43;;;;;;;9.83;3.47;;;13.40;55.40;;;;;;5057191;28;20478;-95
2022/04/08 16:07:11;;;;;;;8.03;2.77;;;13.40;55.50;;;;;;5054909;28;20683;-96
2022/04/08 16:09:43;;;;;;;5.47;2.60;;;13.30;55.50;;;;;;5056753;28;20196;-95
2022/04/08 16:12:11;;;;;;;11.20;3.43;;;13.20;55.60;;;;;;5055936;28;20291;-94
2022/04/08 16:14:41;;;;;;;9.23;3.13;;;13.20;55.70;;;;;;5047134;28;20309;-94
2022/04/08 16:17:11;;;;;;;9.90;3.43;;;13.10;55.80;;;;;;5035830;28;20640;-95
2022/04/08 16:19:41;;;;;;;11.30;3.50;;;13.10;55.90;;;;;;5051764;28;20213;-94
2022/04/08 16:22:22;;;;;;;10.10;3.67;;;13.00;55.90;;;;;;5054019;28;20195;-96
2022/04/08 16:24:57;;;;;;;8.60;2.90;;;13.00;56.00;;;;;;5039006;28;20230;-95
2022/04/08 16:27:28;;;;;;;6.33;2.17;;;13.00;55.80;;;;;;5036908;28;20207;-96
2022/04/08 16:29:55;;;;;;;7.57;2.53;;;12.90;55.70;;;;;;5048754;28;20241;-93
2022/04/08 16:32:30;;;;;;;7.67;2.37;;;12.90;55.50;;;;;;5055923;28;20239;-95
2022/04/08 16:35:01;;;;;;;9.83;2.70;;;12.90;55.50;;;;;;5056566;28;20214;-94
2022/04/08 16:37:30;;;;;;;10.33;3.13;;;12.80;55.40;;;;;;5055262;28;20230;-94
2022/04/08 16:39:59;;;;;;;11.00;3.60;;;12.80;55.60;;;;;;5055857;28;20204;-96
2022/04/08 16:42:26;;;;;;;7.13;2.50;;;12.70;55.40;;;;;;5054184;28;20202;-96
2022/04/08 16:44:54;;;;;;;10.67;3.00;;;12.70;55.20;;;;;;5052841;28;20585;-95
2022/04/08 16:47:25;;;;;;;5.73;2.10;;;12.60;54.90;;;;;;5054913;28;20364;-94
2022/04/08 16:49:53;;;;;;;11.10;3.00;;;12.60;54.70;;;;;;5056312;28;20270;-95
2022/04/08 16:52:26;;;;;;;10.77;3.30;;;12.50;54.80;;;;;;5047524;28;20205;-93
2022/04/08 16:54:54;;;;;;;8.23;2.73;;;12.40;55.50;;;;;;5053519;28;20276;-95
2022/04/08 16:57:27;;;;;;;8.77;2.70;;;12.40;55.10;;;;;;5055623;28;20194;-94
2022/04/08 17:00:03;;;;;;;7.90;2.77;;;12.40;55.10;;;;;;5053692;28;20194;-95
2022/04/08 17:02:31;;;;;;;5.90;2.57;;;12.40;55.30;;;;;;5056220;28;20673;-95
2022/04/08 17:05:00;;;;;;;7.70;2.70;;;12.30;55.40;;;;;;5054112;28;20208;-96
2022/04/08 17:07:33;;;;;;;9.10;2.63;;;12.20;54.80;;;;;;5054449;28;20211;-93
2022/04/08 17:10:02;;;;;;;10.50;2.77;;;12.20;54.90;;;;;;5056437;28;20675;-95
2022/04/08 17:12:31;;;;;;;7.73;2.70;;;12.10;55.10;;;;;;5055403;28;20206;-93
2022/04/08 17:17:48;;;;;;;10.10;2.97;;;12.10;55.60;;;;;;5045903;28;20244;-96
2022/04/08 17:20:15;;;;;;;6.77;2.60;;;12.10;55.80;;;;;;5053988;28;20209;-94
2022/04/08 17:22:48;;;;;;;12.07;3.43;;;12.10;55.90;;;;;;5053573;28;20207;-94
2022/04/08 17:25:56;;;;;;;9.87;2.90;;;12.00;55.50;;;;;;5053634;28;20226;-95
2022/04/08 17:29:07;;;;;;;10.33;3.07;;;12.00;55.30;;;;;;4972248;28;20209;-94
2022/04/08 17:31:36;;;;;;;7.53;2.97;;;11.90;54.90;;;;;;4975995;28;20656;-96
2022/04/08 17:34:28;;;;;;;5.40;2.10;;;11.90;55.00;;;;;;5038158;28;20265;-95
2022/04/08 17:36:58;;;;;;;14.47;3.30;;;11.90;54.80;;;;;;5054912;28;20237;-95
2022/04/08 17:39:26;;;;;;;9.67;3.17;;;11.80;55.40;;;;;;5051316;28;20200;-93
2022/04/08 17:45:18;;;;;;;10.93;4.07;;;11.80;54.90;;;;;;5032879;28;20212;-93
2022/04/08 17:47:56;;;;;;;6.83;2.47;;;11.80;55.10;;;;;;5053624;28;20651;-94
2022/04/08 17:50:35;;;;;;;8.73;3.23;;;11.70;55.20;;;;;;5053639;28;20216;-95
2022/04/08 17:53:33;;;;;;;11.23;3.10;;;11.70;55.50;;;;;;5052948;28;20234;-94
2022/04/08 17:56:05;;;;;;;9.30;3.10;;;11.60;55.40;;;;;;5052989;28;20204;-95
2022/04/08 17:58:48;;;;;;;10.77;3.00;;;11.60;56.00;;;;;;5052407;28;20268;-95
2022/04/08 18:01:16;;;;;;;15.53;4.40;;;11.60;55.60;;;;;;5050615;28;20567;-93
2022/04/08 18:03:46;;;;;;;7.83;2.53;;;11.60;55.70;;;;;;5053401;28;20212;-93
2022/04/08 18:07:13;;;;;;;;;;;;;;;;;;;;;
2022/04/08 18:09:42;;;;;;;9.77;3.27;;;11.50;55.80;;;;;;5052811;28;20205;-93
2022/04/08 18:12:27;;;;;;;9.47;3.73;;;11.50;55.80;;;;;;5053555;28;20201;-94
2022/04/08 18:14:57;;;;;;;10.00;3.13;;;11.50;56.00;;;;;;5054278;28;20716;-93
2022/04/08 18:17:44;;;;;;;12.80;3.63;;;11.40;56.00;;;;;;5041635;28;20207;-94
2022/04/08 18:20:15;;;;;;;4.10;1.97;;;11.40;56.10;;;;;;5036159;28;20207;-94
2022/04/08 18:23:06;;;;;;;6.83;2.67;;;11.40;56.20;;;;;;5034342;28;20212;-94
2022/04/08 18:25:54;;;;;;;11.40;3.30;;;11.40;56.20;;;;;;5035658;28;20387;-93
2022/04/08 18:28:35;;;;;;;12.20;3.67;;;11.50;56.50;;;;;;5034977;28;20214;-93
2022/04/08 18:31:10;;;;;;;8.33;3.33;;;11.40;56.50;;;;;;5037761;28;20204;-95
2022/04/08 18:33:40;;;;;;;12.53;3.17;;;11.40;56.60;;;;;;5052511;28;20665;-94
2022/04/08 18:36:25;;;;;;;12.70;3.90;;;11.40;56.60;;;;;;5054507;28;20212;-92
2022/04/08 18:38:55;;;;;;;9.30;2.73;;;11.30;56.80;;;;;;5052587;28;20214;-94
2022/04/08 18:41:30;;;;;;;13.60;3.73;;;11.30;56.90;;;;;;5053076;28;20239;-94
2022/04/08 18:44:00;;;;;;;7.57;2.43;;;11.30;57.00;;;;;;5050264;28;20223;-95
2022/04/08 18:47:16;;;;;;;13.60;4.27;;;11.30;57.10;;;;;;5055227;28;20874;-94
2022/04/08 18:49:44;;;;;;;7.57;2.73;;;11.30;57.30;;;;;;5037463;28;20234;-95
2022/04/08 18:55:28;;;;;;;10.17;3.07;;;11.20;57.20;;;;;;5037288;28;20286;-93
2022/04/08 18:57:55;;;;;;;12.33;3.67;;;11.30;57.30;;;;;;5056474;28;20216;-95
2022/04/08 19:00:27;;;;;;;7.63;2.40;;;11.20;57.20;;;;;;5049540;28;20205;-93
2022/04/08 19:03:05;;;;;;;8.60;3.23;;;11.20;57.20;;;;;;5055287;28;20191;-95
2022/04/08 19:05:33;;;;;;;9.00;3.13;;;11.20;57.00;;;;;;5045733;28;20271;-96
2022/04/08 19:08:27;;;;;;;18.07;4.57;;;11.20;56.80;;;;;;5039756;28;20203;-95
2022/04/08 19:10:54;;;;;;;9.23;2.77;;;11.20;56.80;;;;;;5054154;28;20196;-95
2022/04/08 19:13:22;;;;;;;10.03;3.23;;;11.10;56.80;;;;;;5057997;28;20208;-95
2022/04/08 19:16:26;;;;;;;13.40;3.40;;;11.10;56.80;;;;;;5057289;28;20192;-94
2022/04/08 19:18:54;;;;;;;8.50;2.37;;;11.10;57.10;;;;;;5059378;28;20268;-93
2022/04/08 19:21:33;;;;;;;14.33;3.80;;;11.10;57.00;;;;;;5057577;28;20185;-94
2022/04/08 19:24:10;;;;;;;8.93;2.77;;;11.00;57.10;;;;;;5057700;28;20226;-95
2022/04/08 19:26:38;;;;;;;9.43;2.67;;;11.00;57.10;;;;;;5058733;28;20204;-95
2022/04/08 19:29:23;;;;;;;10.47;2.40;;;11.00;57.10;;;;;;5065162;28;20204;-93
2022/04/08 19:31:53;;;;;;;47.03;14.27;;;11.00;57.10;;;;;;5184724;22;21043;-96
2022/04/08 19:34:25;;;;;;;13.37;3.27;;;11.00;57.20;;;;;;5026663;28;20233;-95
2022/04/08 19:37:16;;;;;;;12.10;3.40;;;11.00;57.30;;;;;;5035994;28;20229;-96
2022/04/08 19:40:30;;;;;;;8.87;2.60;;;10.90;57.60;;;;;;5037376;28;20208;-95
2022/04/08 19:43:03;;;;;;;5.40;1.53;;;10.90;58.40;;;;;;5016842;28;20228;-94
2022/04/08 19:45:30;;;;;;;10.63;2.47;;;10.90;58.10;;;;;;5043011;28;20284;-94
2022/04/08 19:48:12;;;;;;;8.90;2.77;;;10.90;58.60;;;;;;5043082;28;20228;-95
2022/04/08 19:50:41;;;;;;;8.23;1.80;;;10.90;58.80;;;;;;5049219;28;20256;-95
2022/04/08 19:53:11;;;;;;;17.97;3.67;;;10.90;58.80;;;;;;5040857;28;20197;-95
2022/04/08 19:56:01;;;;;;;7.93;2.30;;;10.80;58.80;;;;;;5033063;28;20221;-95
2022/04/08 19:58:30;;;;;;;14.33;3.80;;;10.80;58.80;;;;;;5031038;28;20216;-93
2022/04/08 20:00:57;;;;;;;6.73;2.37;;;10.80;59.00;;;;;;5023437;28;20202;-95
2022/04/08 20:03:32;;;;;;;6.70;1.90;;;10.80;59.00;;;;;;5028559;28;20265;-95
2022/04/08 20:06:08;;;;;;;10.43;2.20;;;10.70;59.00;;;;;;5026317;28;20201;-95
2022/04/08 20:08:39;;;;;;;10.13;2.03;;;10.70;59.00;;;;;;5028447;28;20208;-96
2022/04/08 20:11:41;;;;;;;9.27;2.37;;;10.70;58.90;;;;;;5029189;28;20205;-93
2022/04/08 20:14:30;;;;;;;9.37;2.40;;;10.70;58.90;;;;;;5021928;28;20240;-95
2022/04/08 20:17:06;;;;;;;9.20;2.53;;;10.70;58.90;;;;;;5017948;28;20214;-95
2022/04/08 20:19:40;;;;;;;8.20;2.93;;;10.70;59.00;;;;;;5020514;28;20233;-94
2022/04/08 20:22:19;;;;;;;17.17;4.40;;;10.70;59.00;;;;;;5019673;28;20200;-94
2022/04/08 20:24:51;;;;;;;10.10;2.33;;;10.60;58.90;;;;;;5019373;28;20231;-95
2022/04/08 20:30:31;;;;;;;10.07;3.00;;;10.60;59.30;;;;;;5082351;23;20314;-94
2022/04/08 20:32:58;;;;;;;5.87;1.83;;;10.60;59.30;;;;;;5057291;28;20215;-95
2022/04/08 20:35:50;;;;;;;13.87;3.07;;;10.60;59.20;;;;;;5058187;28;20254;-94
2022/04/08 20:38:21;;;;;;;8.03;2.57;;;10.50;59.20;;;;;;5057619;28;20676;-94
2022/04/08 20:41:08;;;;;;;11.43;2.40;;;10.50;58.80;;;;;;5057363;28;20739;-95
2022/04/08 20:43:39;;;;;;;12.30;3.20;;;10.40;58.90;;;;;;5058745;23;20224;-95
2022/04/08 20:46:19;;;;;;;7.10;2.00;;;10.50;58.80;;;;;;5056707;28;20348;-95
2022/04/08 20:48:53;;;;;;;7.47;2.20;;;10.40;59.00;;;;;;5056578;28;20563;-95
2022/04/08 20:51:21;;;;;;;8.53;2.73;;;10.40;59.00;;;;;;5048217;28;20207;-95
2022/04/08 20:53:49;;;;;;;8.20;2.43;;;10.40;58.70;;;;;;5056807;28;20646;-94
2022/04/08 20:56:28;;;;;;;9.17;2.37;;;10.40;58.70;;;;;;5057083;28;20570;-94
2022/04/08 20:58:58;;;;;;;7.37;2.23;;;10.40;58.80;;;;;;5057716;28;20203;-94
2022/04/08 21:01:51;;;;;;;9.90;2.60;;;10.40;58.90;;;;;;5058275;28;20238;-95
2022/04/08 21:04:22;;;;;;;8.77;2.23;;;10.40;59.30;;;;;;5058707;28;20201;-94
2022/04/08 21:10:22;;;;;;;8.47;1.83;;;10.30;59.30;;;;;;5039269;28;20210;-95
2022/04/08 21:12:53;;;;;;;9.67;2.17;;;10.30;59.30;;;;;;5059237;28;20208;-94
2022/04/08 21:15:31;;;;;;;9.63;2.93;;;10.30;59.30;;;;;;5059325;28;20225;-94
2022/04/08 21:18:05;;;;;;;9.33;2.47;;;10.40;59.50;;;;;;5058407;28;20662;-94
2022/04/08 21:20:37;;;;;;;9.40;2.43;;;10.30;59.30;;;;;;5058252;28;20681;-94
2022/04/08 21:23:18;;;;;;;12.77;4.33;;;10.30;59.30;;;;;;5057922;28;20212;-94
2022/04/08 21:25:52;;;;;;;7.90;2.23;;;10.30;59.30;;;;;;5058343;28;20208;-95
2022/04/08 21:28:23;;;;;;;9.47;2.47;;;10.30;59.40;;;;;;5050089;28;20251;-94
2022/04/08 21:30:52;;;;;;;7.77;2.67;;;10.30;59.40;;;;;;5058131;28;20227;-94
2022/04/08 21:33:45;;;;;;;17.43;4.83;;;10.30;59.40;;;;;;5049972;28;20629;-95
2022/04/08 21:40:07;;;;;;;20.90;4.67;;;10.30;59.40;;;;;;4977148;28;20398;-94
2022/04/08 21:43:06;;;;;;;9.43;2.70;;;10.30;59.50;;;;;;4976966;28;20306;-95
2022/04/08 21:49:13;;;;;;;10.13;2.97;;;10.20;59.40;;;;;;4994711;28;20291;-96
2022/04/08 22:05:45;;;;;;;15.47;3.57;;;10.10;60.00;;;;;;4995244;28;20194;-96
2022/04/08 22:08:33;;;;;;;11.50;2.97;;;10.10;59.90;;;;;;4937994;29;20263;-96
2022/04/08 22:14:44;;;;;;;14.57;3.47;;;10.10;60.20;;;;;;5057356;23;20278;-96
2022/04/08 22:20:55;;;;;;;13.93;3.13;;;10.00;60.00;;;;;;5028377;28;20936;-96
2022/04/08 22:23:46;;;;;;;9.97;2.27;;;10.00;60.10;;;;;;5036008;28;20247;-96
2022/04/08 22:30:52;;;;;;;10.73;2.73;;;10.00;60.00;;;;;;5043207;28;20636;-96
2022/04/08 22:43:15;;;;;;;11.13;3.27;;;9.90;61.10;;;;;;4980091;28;20263;-96
2022/04/08 22:55:15;;;;;;;7.70;2.10;;;9.80;61.00;;;;;;5049421;28;20220;-95
2022/04/08 23:11:38;;;;;;;11.77;3.20;;;9.70;61.90;;;;;;4974840;28;20210;-96
2022/04/08 23:21:53;;;;;;;11.07;3.23;;;9.60;62.00;;;;;;4940263;28;20234;-96
